createdAt,value
2022-12-27T00:00:49.809Z,0.9
2022-12-27T00:02:50.555Z,0.9
2022-12-27T00:04:49.955Z,0.8
2022-12-27T00:06:49.975Z,0.8
2022-12-27T00:08:49.791Z,0.8
2022-12-27T00:10:50.364Z,0.8
2022-12-27T00:12:50.026Z,0.8
2022-12-27T00:14:49.821Z,0.8
2022-12-27T00:16:50.707Z,0.8
2022-12-27T00:18:50.440Z,0.8
2022-12-27T00:20:50.081Z,1.8
2022-12-27T00:22:49.877Z,1.8
2022-12-27T00:24:50.521Z,1.8
2022-12-27T00:26:50.519Z,0.9
2022-12-27T00:28:50.140Z,0.9
2022-12-27T00:30:49.979Z,0.8
2022-12-27T00:32:49.764Z,0.8
2022-12-27T00:34:49.797Z,0.8
2022-12-27T00:36:49.808Z,0.8
2022-12-27T00:38:50.637Z,0.7
2022-12-27T00:40:50.413Z,0.8
2022-12-27T00:42:50.260Z,0.8
2022-12-27T00:44:49.853Z,0.9
2022-12-27T00:46:49.855Z,0.8
2022-12-27T00:48:50.482Z,0.8
2022-12-27T00:50:50.311Z,0.8
2022-12-27T00:52:49.905Z,0.8
2022-12-27T00:54:50.537Z,0.9
2022-12-27T00:56:50.548Z,0.8
2022-12-27T00:58:50.130Z,0.8
2022-12-27T01:00:50.094Z,0.8
2022-12-27T01:02:50.142Z,0.9
2022-12-27T01:04:50.213Z,0.9
2022-12-27T01:06:50.214Z,0.8
2022-12-27T01:08:49.997Z,0.8
2022-12-27T01:10:49.844Z,0.8
2022-12-27T01:12:50.706Z,0.9
2022-12-27T01:14:50.505Z,0.8
2022-12-27T01:16:50.666Z,0.8
2022-12-27T01:18:50.545Z,0.9
2022-12-27T01:20:50.094Z,0.8
2022-12-27T01:22:49.918Z,0.8
2022-12-27T01:24:50.563Z,0.9
2022-12-27T01:26:49.738Z,0.9
2022-12-27T01:28:50.583Z,0.8
2022-12-27T01:30:50.457Z,0.8
2022-12-27T01:32:50.215Z,0.8
2022-12-27T01:34:50.700Z,0.9
2022-12-27T01:36:49.817Z,0.9
2022-12-27T01:38:50.469Z,0.8
2022-12-27T01:40:50.286Z,0.8
2022-12-27T01:42:50.076Z,0.9
2022-12-27T01:44:50.711Z,0.9
2022-12-27T01:46:49.723Z,0.9
2022-12-27T01:48:50.309Z,0.9
2022-12-27T01:50:50.116Z,0.8
2022-12-27T01:52:49.948Z,0.9
2022-12-27T01:54:49.743Z,0.9
2022-12-27T01:56:50.560Z,0.8
2022-12-27T01:58:50.413Z,0.8
2022-12-27T02:00:50.172Z,0.9
2022-12-27T02:02:50.340Z,0.8
2022-12-27T02:04:50.696Z,0.8
2022-12-27T02:06:50.648Z,1.2
2022-12-27T02:08:50.256Z,1.2
2022-12-27T02:10:50.097Z,0.9
2022-12-27T02:12:50.771Z,0.8
2022-12-27T02:14:50.498Z,0.8
2022-12-27T02:16:50.621Z,0.8
2022-12-27T02:18:50.531Z,0.8
2022-12-27T02:20:50.158Z,0.9
2022-12-27T02:22:49.984Z,0.9
2022-12-27T02:24:49.868Z,0.8
2022-12-27T02:26:49.790Z,0.8
2022-12-27T02:28:50.609Z,0.9
2022-12-27T02:30:50.283Z,0.9
2022-12-27T02:32:50.286Z,0.9
2022-12-27T02:34:50.467Z,0.9
2022-12-27T02:36:50.478Z,0.9
2022-12-27T02:38:50.283Z,0.9
2022-12-27T02:40:49.888Z,0.8
2022-12-27T02:42:49.801Z,0.9
2022-12-27T02:44:50.297Z,0.9
2022-12-27T02:46:50.373Z,0.9
2022-12-27T02:48:49.952Z,0.9
2022-12-27T02:50:49.759Z,0.9
2022-12-27T02:52:50.344Z,0.9
2022-12-27T02:54:49.994Z,0.9
2022-12-27T02:56:50.199Z,0.9
2022-12-27T02:58:50.028Z,0.8
2022-12-27T03:00:50.615Z,0.8
2022-12-27T03:02:50.543Z,0.9
2022-12-27T03:04:49.864Z,0.9
2022-12-27T03:06:49.885Z,0.9
2022-12-27T03:08:49.906Z,0.9
2022-12-27T03:10:49.726Z,0.9
2022-12-27T03:12:50.322Z,0.8
2022-12-27T03:14:50.170Z,0.8
2022-12-27T03:16:50.331Z,0.8
2022-12-27T03:18:49.998Z,0.9
2022-12-27T03:20:49.823Z,0.8
2022-12-27T03:22:50.625Z,0.8
2022-12-27T03:24:50.403Z,0.9
2022-12-27T03:26:50.435Z,1.0
2022-12-27T03:28:50.246Z,0.8
2022-12-27T03:30:49.997Z,0.9
2022-12-27T03:32:49.868Z,0.9
2022-12-27T03:34:50.083Z,0.8
2022-12-27T03:36:50.110Z,0.9
2022-12-27T03:38:49.935Z,0.9
2022-12-27T03:40:50.573Z,0.9
2022-12-27T03:42:50.357Z,0.9
2022-12-27T03:44:50.153Z,0.9
2022-12-27T03:46:50.204Z,0.8
2022-12-27T03:48:49.763Z,0.8
2022-12-27T03:50:50.618Z,1.7
2022-12-27T03:52:50.401Z,1.7
2022-12-27T03:54:50.232Z,0.8
2022-12-27T03:56:50.250Z,0.9
2022-12-27T03:58:50.053Z,0.9
2022-12-27T04:00:50.690Z,0.9
2022-12-27T04:02:50.916Z,0.9
2022-12-27T04:04:50.365Z,0.9
2022-12-27T04:06:50.323Z,1.0
2022-12-27T04:08:50.156Z,0.9
2022-12-27T04:10:49.953Z,0.9
2022-12-27T04:12:50.552Z,0.9
2022-12-27T04:14:50.399Z,0.9
2022-12-27T04:16:50.380Z,0.9
2022-12-27T04:18:50.229Z,0.9
2022-12-27T04:20:49.881Z,0.9
2022-12-27T04:22:50.626Z,0.9
2022-12-27T04:24:50.206Z,0.9
2022-12-27T04:26:50.283Z,0.8
2022-12-27T04:28:50.164Z,0.8
2022-12-27T04:30:50.023Z,0.9
2022-12-27T04:32:50.115Z,0.9
2022-12-27T04:34:50.335Z,1.0
2022-12-27T04:36:50.330Z,1.0
2022-12-27T04:38:49.943Z,0.9
2022-12-27T04:40:50.627Z,0.9
2022-12-27T04:42:50.375Z,0.9
2022-12-27T04:44:50.198Z,0.8
2022-12-27T04:46:50.521Z,0.8
2022-12-27T04:48:50.419Z,0.8
2022-12-27T04:50:50.163Z,0.8
2022-12-27T04:52:49.951Z,0.9
2022-12-27T04:54:50.553Z,1.0
2022-12-27T04:56:50.616Z,0.9
2022-12-27T04:58:50.390Z,0.8
2022-12-27T05:00:50.035Z,0.8
2022-12-27T05:02:50.317Z,0.9
2022-12-27T05:04:50.257Z,0.9
2022-12-27T05:06:50.459Z,0.9
2022-12-27T05:08:50.284Z,0.9
2022-12-27T05:10:49.914Z,0.9
2022-12-27T05:12:49.835Z,0.8
2022-12-27T05:14:50.503Z,0.8
2022-12-27T05:16:50.543Z,0.9
2022-12-27T05:18:50.357Z,0.9
2022-12-27T05:20:50.018Z,0.9
2022-12-27T05:22:49.757Z,0.9
2022-12-27T05:24:50.451Z,0.9
2022-12-27T05:26:49.705Z,0.9
2022-12-27T05:28:50.633Z,0.9
2022-12-27T05:30:50.222Z,4.2
2022-12-27T05:32:50.018Z,2.1
2022-12-27T05:34:50.275Z,2.1
2022-12-27T05:36:50.528Z,2.1
2022-12-27T05:38:50.315Z,2.1
2022-12-27T05:40:49.901Z,2.0
2022-12-27T05:42:50.492Z,2.2
2022-12-27T05:44:50.130Z,2.4
2022-12-27T05:46:50.258Z,2.4
2022-12-27T05:48:50.348Z,2.2
2022-12-27T05:50:49.980Z,2.2
2022-12-27T05:52:49.776Z,2.2
2022-12-27T05:54:50.395Z,2.1
2022-12-27T05:56:50.416Z,2.1
2022-12-27T05:58:50.226Z,2.1
2022-12-27T06:00:50.030Z,2.1
2022-12-27T06:02:50.858Z,2.2
2022-12-27T06:04:50.527Z,2.2
2022-12-27T06:06:50.495Z,2.3
2022-12-27T06:08:50.106Z,2.3
2022-12-27T06:10:49.932Z,2.2
2022-12-27T06:12:49.727Z,2.3
2022-12-27T06:14:50.609Z,2.3
2022-12-27T06:16:49.889Z,2.6
2022-12-27T06:18:49.806Z,2.3
2022-12-27T06:20:50.556Z,2.3
2022-12-27T06:22:50.253Z,2.3
2022-12-27T06:24:49.815Z,2.3
2022-12-27T06:26:49.814Z,2.3
2022-12-27T06:28:50.457Z,2.3
2022-12-27T06:30:50.067Z,2.4
2022-12-27T06:32:49.869Z,2.4
2022-12-27T06:34:50.107Z,2.7
2022-12-27T06:36:50.350Z,2.7
2022-12-27T06:38:50.102Z,2.7
2022-12-27T06:40:49.776Z,2.8
2022-12-27T06:42:50.546Z,2.8
2022-12-27T06:44:50.198Z,2.7
2022-12-27T06:46:50.400Z,2.7
2022-12-27T06:48:50.232Z,2.6
2022-12-27T06:50:49.986Z,2.6
2022-12-27T06:52:50.668Z,2.6
2022-12-27T06:54:50.424Z,2.5
2022-12-27T06:56:50.459Z,2.5
2022-12-27T06:58:50.064Z,2.9
2022-12-27T07:00:50.066Z,2.9
2022-12-27T07:02:50.193Z,2.9
2022-12-27T07:04:49.913Z,2.7
2022-12-27T07:06:50.121Z,2.8
2022-12-27T07:08:49.748Z,2.7
2022-12-27T07:10:50.384Z,2.6
2022-12-27T07:12:50.174Z,2.6
2022-12-27T07:14:49.800Z,2.5
2022-12-27T07:16:49.886Z,3.0
2022-12-27T07:18:50.441Z,2.5
2022-12-27T07:20:50.024Z,2.6
2022-12-27T07:22:50.632Z,2.6
2022-12-27T07:24:50.221Z,3.0
2022-12-27T07:26:50.273Z,2.9
2022-12-27T07:28:49.932Z,3.0
2022-12-27T07:30:50.691Z,3.0
2022-12-27T07:32:50.305Z,2.9
2022-12-27T07:34:50.524Z,2.8
2022-12-27T07:36:50.544Z,2.8
2022-12-27T07:38:50.366Z,3.1
2022-12-27T07:40:50.179Z,3.1
2022-12-27T07:42:49.982Z,3.2
2022-12-27T07:44:50.619Z,3.2
2022-12-27T07:46:50.579Z,2.9
2022-12-27T07:48:50.219Z,3.1
2022-12-27T07:50:50.043Z,2.9
2022-12-27T07:52:50.650Z,3.0
2022-12-27T07:54:50.292Z,3.0
2022-12-27T07:56:50.498Z,2.9
2022-12-27T07:58:50.072Z,3.7
2022-12-27T08:00:49.711Z,3.1
2022-12-27T08:02:50.385Z,3.1
2022-12-27T08:04:50.005Z,3.0
2022-12-27T08:06:50.151Z,3.1
2022-12-27T08:08:49.978Z,3.1
2022-12-27T08:10:50.584Z,2.6
2022-12-27T08:12:50.365Z,3.7
2022-12-27T08:14:50.035Z,3.0
2022-12-27T08:16:50.177Z,3.3
2022-12-27T08:18:50.052Z,3.3
2022-12-27T08:20:49.856Z,3.1
2022-12-27T08:22:50.651Z,3.1
2022-12-27T08:24:50.481Z,3.1
2022-12-27T08:26:50.518Z,3.1
2022-12-27T08:28:50.117Z,3.0
2022-12-27T08:30:50.001Z,3.0
2022-12-27T08:32:49.932Z,3.2
2022-12-27T08:34:50.170Z,3.4
2022-12-27T08:36:57.139Z,3.3
2022-12-27T08:38:50.014Z,3.3
2022-12-27T08:40:49.843Z,3.0
2022-12-27T08:42:50.411Z,3.0
2022-12-27T08:44:50.243Z,3.2
2022-12-27T08:46:50.379Z,3.0
2022-12-27T08:48:50.105Z,3.0
2022-12-27T08:50:49.876Z,3.3
2022-12-27T08:52:50.662Z,3.0
2022-12-27T08:54:50.273Z,3.2
2022-12-27T08:56:50.353Z,3.0
2022-12-27T08:58:49.928Z,3.1
2022-12-27T09:00:50.566Z,3.1
2022-12-27T09:02:50.418Z,3.0
2022-12-27T09:04:49.810Z,2.8
2022-12-27T09:06:49.800Z,2.8
2022-12-27T09:08:50.614Z,3.0
2022-12-27T09:10:50.400Z,3.0
2022-12-27T09:12:49.851Z,2.8
2022-12-27T09:14:50.431Z,2.9
2022-12-27T09:16:50.237Z,2.9
2022-12-27T09:18:50.672Z,2.9
2022-12-27T09:20:50.476Z,2.8
2022-12-27T09:22:50.119Z,2.7
2022-12-27T09:24:49.728Z,2.6
2022-12-27T09:26:50.349Z,2.5
2022-12-27T09:28:49.936Z,2.5
2022-12-27T09:30:50.707Z,2.8
2022-12-27T09:32:50.573Z,2.7
2022-12-27T09:34:50.367Z,2.6
2022-12-27T09:36:50.411Z,2.6
2022-12-27T09:38:50.253Z,2.9
2022-12-27T09:40:49.885Z,2.7
2022-12-27T09:43:12.793Z,2.6
2022-12-27T09:44:50.600Z,2.5
2022-12-27T09:46:50.475Z,2.5
2022-12-27T09:48:50.104Z,2.6
2022-12-27T09:50:49.736Z,2.5
2022-12-27T09:52:50.335Z,2.6
2022-12-27T09:54:49.960Z,2.4
2022-12-27T09:57:19.206Z,2.4
2022-12-27T09:58:50.674Z,2.4
2022-12-27T10:00:50.369Z,2.4
2022-12-27T10:02:50.305Z,2.4
2022-12-27T10:05:19.531Z,2.4
2022-12-27T10:06:50.409Z,2.2
2022-12-27T10:08:50.246Z,2.2
2022-12-27T10:10:49.853Z,2.5
2022-12-27T10:12:50.450Z,2.0
2022-12-27T10:14:50.142Z,2.2
2022-12-27T10:16:50.096Z,2.2
2022-12-27T10:18:49.715Z,2.0
2022-12-27T10:20:50.562Z,1.9
2022-12-27T10:22:50.149Z,2.0
2022-12-27T10:24:49.768Z,1.9
2022-12-27T10:26:49.783Z,1.9
2022-12-27T10:28:57.258Z,2.1
2022-12-27T10:30:50.354Z,2.1
2022-12-27T10:32:50.228Z,2.0
2022-12-27T10:34:50.429Z,2.0
2022-12-27T10:36:50.460Z,2.0
2022-12-27T10:38:50.071Z,2.3
2022-12-27T10:40:49.855Z,1.9
2022-12-27T10:42:50.274Z,1.9
2022-12-27T10:44:49.886Z,1.8
2022-12-27T10:46:50.118Z,2.1
2022-12-27T10:49:20.894Z,2.1
2022-12-27T10:50:49.989Z,2.0
2022-12-27T10:52:57.925Z,2.0
2022-12-27T10:54:50.567Z,2.1
2022-12-27T10:56:50.410Z,2.5
2022-12-27T10:58:59.151Z,2.1
2022-12-27T11:00:50.051Z,2.1
2022-12-27T11:02:50.017Z,2.1
2022-12-27T11:04:50.680Z,2.1
2022-12-27T11:06:50.643Z,2.0
2022-12-27T11:08:50.281Z,2.0
2022-12-27T11:10:49.900Z,1.9
2022-12-27T11:12:49.693Z,1.9
2022-12-27T11:14:50.313Z,2.0
2022-12-27T11:16:50.115Z,1.9
2022-12-27T11:18:49.775Z,2.0
2022-12-27T11:20:50.561Z,2.4
2022-12-27T11:22:50.202Z,2.4
2022-12-27T11:24:50.004Z,2.2
2022-12-27T11:26:54.513Z,2.1
2022-12-27T11:28:50.209Z,2.1
2022-12-27T11:30:49.846Z,2.1
2022-12-27T11:32:50.463Z,2.1
2022-12-27T11:34:50.447Z,2.1
2022-12-27T11:36:50.300Z,2.2
2022-12-27T11:38:49.892Z,2.3
2022-12-27T11:40:50.310Z,2.3
2022-12-27T11:42:49.943Z,2.1
2022-12-27T11:44:50.518Z,2.1
2022-12-27T11:46:59.377Z,2.2
2022-12-27T11:48:50.504Z,2.0
2022-12-27T11:50:49.983Z,2.0
2022-12-27T11:52:50.553Z,2.0
2022-12-27T11:54:50.228Z,2.2
2022-12-27T11:56:50.221Z,2.1
2022-12-27T11:58:49.847Z,2.0
2022-12-27T12:00:50.457Z,2.0
2022-12-27T12:02:50.326Z,2.2
2022-12-27T12:04:50.175Z,1.9
2022-12-27T12:06:50.298Z,1.9
2022-12-27T12:08:49.917Z,2.1
2022-12-27T12:10:50.282Z,2.1
2022-12-27T12:12:49.930Z,2.0
2022-12-27T12:14:49.781Z,2.2
2022-12-27T12:16:50.068Z,2.2
2022-12-27T12:18:49.976Z,2.0
2022-12-27T12:20:51.348Z,2.0
2022-12-27T12:22:49.812Z,2.0
2022-12-27T12:24:50.635Z,2.2
2022-12-27T12:26:56.202Z,2.2
2022-12-27T12:29:00.224Z,2.2
2022-12-27T12:30:50.482Z,2.2
2022-12-27T12:32:50.107Z,2.2
2022-12-27T12:34:50.305Z,2.1
2022-12-27T12:36:53.111Z,1.8
2022-12-27T12:38:49.742Z,1.8
2022-12-27T12:40:50.315Z,2.2
2022-12-27T12:42:50.146Z,2.2
2022-12-27T12:44:49.759Z,2.4
2022-12-27T12:46:50.567Z,2.0
2022-12-27T12:48:50.210Z,2.0
2022-12-27T12:50:49.806Z,2.1
2022-12-27T12:52:50.616Z,2.1
2022-12-27T12:54:49.996Z,1.9
2022-12-27T12:56:50.271Z,2.1
2022-12-27T12:58:49.861Z,2.0
2022-12-27T13:00:50.647Z,2.1
2022-12-27T13:02:49.967Z,2.1
2022-12-27T13:04:50.506Z,2.0
2022-12-27T13:06:50.519Z,2.0
2022-12-27T13:08:50.154Z,1.8
2022-12-27T13:10:49.796Z,1.8
2022-12-27T13:12:53.326Z,1.9
2022-12-27T13:14:49.990Z,1.8
2022-12-27T13:16:49.989Z,2.2
2022-12-27T13:18:49.794Z,2.2
2022-12-27T13:20:50.417Z,2.2
2022-12-27T13:22:49.832Z,2.0
2022-12-27T13:24:50.428Z,2.0
2022-12-27T13:26:50.291Z,2.0
2022-12-27T13:28:49.878Z,1.9
2022-12-27T13:30:49.772Z,1.8
2022-12-27T13:32:50.493Z,1.8
2022-12-27T13:34:50.550Z,2.0
2022-12-27T13:36:50.606Z,2.0
2022-12-27T13:38:50.140Z,2.0
2022-12-27T13:40:49.787Z,1.8
2022-12-27T13:42:50.392Z,2.0
2022-12-27T13:44:50.003Z,1.8
2022-12-27T13:46:50.009Z,1.8
2022-12-27T13:48:50.603Z,2.1
2022-12-27T13:50:50.250Z,1.5
2022-12-27T13:52:59.419Z,1.9
2022-12-27T13:54:50.060Z,2.3
2022-12-27T13:56:55.630Z,1.8
2022-12-27T13:58:59.469Z,1.8
2022-12-27T14:00:50.485Z,1.7
2022-12-27T14:02:50.335Z,1.9
2022-12-27T14:04:59.468Z,2.0
2022-12-27T14:06:49.917Z,2.0
2022-12-27T14:08:50.379Z,2.1
2022-12-27T14:11:00.374Z,2.1
2022-12-27T14:12:50.583Z,1.8
2022-12-27T14:14:50.191Z,1.8
2022-12-27T14:16:59.502Z,2.0
2022-12-27T14:18:50.197Z,2.0
2022-12-27T14:20:49.947Z,1.8
2022-12-27T14:22:54.575Z,2.0
2022-12-27T14:24:50.299Z,2.3
2022-12-27T14:26:49.745Z,2.3
2022-12-27T14:28:59.613Z,1.8
2022-12-27T14:30:49.985Z,1.9
2022-12-27T14:32:49.757Z,2.2
2022-12-27T14:34:59.267Z,1.8
2022-12-27T14:36:49.742Z,1.8
2022-12-27T14:38:50.401Z,2.1
2022-12-27T14:40:50.042Z,2.0
2022-12-27T14:42:50.608Z,2.0
2022-12-27T14:44:50.235Z,2.0
2022-12-27T14:46:50.131Z,2.2
2022-12-27T14:48:50.069Z,1.9
2022-12-27T14:50:50.731Z,2.3
2022-12-27T14:52:49.692Z,2.3
2022-12-27T14:54:50.092Z,2.1
2022-12-27T14:56:49.948Z,2.1
2022-12-27T14:58:49.756Z,2.2
2022-12-27T15:00:50.333Z,2.3
2022-12-27T15:02:50.409Z,2.3
2022-12-27T15:04:50.399Z,2.5
2022-12-27T15:06:50.434Z,2.5
2022-12-27T15:08:50.118Z,2.4
2022-12-27T15:10:49.744Z,2.1
2022-12-27T15:12:50.317Z,1.9
2022-12-27T15:14:49.953Z,1.9
2022-12-27T15:16:49.956Z,2.0
2022-12-27T15:18:50.697Z,2.0
2022-12-27T15:20:50.390Z,1.9
2022-12-27T15:22:50.044Z,2.0
2022-12-27T15:24:50.637Z,2.0
2022-12-27T15:26:50.625Z,2.1
2022-12-27T15:28:50.049Z,2.8
2022-12-27T15:30:50.854Z,2.8
2022-12-27T15:32:53.646Z,1.9
2022-12-27T15:34:49.710Z,2.3
2022-12-27T15:36:50.475Z,1.9
2022-12-27T15:38:55.017Z,2.4
2022-12-27T15:40:49.948Z,2.4
2022-12-27T15:42:50.551Z,2.3
2022-12-27T15:44:50.210Z,2.3
2022-12-27T15:46:50.285Z,2.6
2022-12-27T15:48:54.009Z,2.6
2022-12-27T15:50:50.614Z,2.6
2022-12-27T15:52:50.259Z,2.6
2022-12-27T15:54:54.126Z,2.9
2022-12-27T15:56:50.067Z,3.3
2022-12-27T15:58:49.881Z,3.2
2022-12-27T16:00:50.509Z,3.4
2022-12-27T16:02:50.456Z,3.4
2022-12-27T16:04:50.578Z,2.9
2022-12-27T16:06:50.566Z,3.4
2022-12-27T16:08:50.329Z,3.4
2022-12-27T16:10:50.027Z,3.4
2022-12-27T16:12:49.813Z,3.2
2022-12-27T16:14:50.403Z,3.3
2022-12-27T16:16:50.418Z,3.3
2022-12-27T16:18:50.030Z,3.2
2022-12-27T16:20:50.638Z,3.2
2022-12-27T16:22:50.441Z,3.2
2022-12-27T16:24:50.081Z,3.5
2022-12-27T16:26:50.093Z,3.8
2022-12-27T16:28:50.681Z,3.8
2022-12-27T16:30:50.300Z,3.9
2022-12-27T16:32:49.936Z,4.3
2022-12-27T16:34:49.941Z,3.5
2022-12-27T16:36:49.952Z,3.5
2022-12-27T16:38:50.570Z,3.5
2022-12-27T16:40:50.377Z,3.4
2022-12-27T16:42:50.020Z,3.4
2022-12-27T16:44:50.599Z,3.5
2022-12-27T16:46:50.661Z,3.6
2022-12-27T16:48:50.635Z,3.6
2022-12-27T16:50:50.460Z,3.3
2022-12-27T16:52:50.097Z,3.3
2022-12-27T16:54:49.868Z,3.7
2022-12-27T16:56:49.902Z,3.3
2022-12-27T16:58:50.521Z,3.3
2022-12-27T17:00:50.398Z,3.6
2022-12-27T17:02:50.199Z,3.6
2022-12-27T17:04:50.363Z,3.5
2022-12-27T17:06:50.178Z,3.5
2022-12-27T17:08:49.811Z,3.3
2022-12-27T17:10:50.629Z,3.6
2022-12-27T17:12:50.199Z,3.6
2022-12-27T17:14:50.157Z,3.5
2022-12-27T17:16:50.375Z,3.5
2022-12-27T17:18:50.233Z,3.5
2022-12-27T17:20:49.865Z,3.9
2022-12-27T17:22:50.296Z,3.7
2022-12-27T17:24:50.101Z,3.8
2022-12-27T17:26:50.134Z,4.2
2022-12-27T17:28:49.747Z,4.2
2022-12-27T17:30:50.336Z,3.9
2022-12-27T17:32:49.972Z,4.4
2022-12-27T17:34:50.176Z,4.3
2022-12-27T17:36:49.969Z,4.3
2022-12-27T17:38:49.830Z,4.3
2022-12-27T17:40:50.457Z,4.1
2022-12-27T17:42:50.269Z,4.3
2022-12-27T17:44:50.127Z,4.1
2022-12-27T17:46:50.090Z,4.1
2022-12-27T17:48:50.695Z,4.1
2022-12-27T17:50:50.324Z,4.6
2022-12-27T17:52:49.911Z,4.1
2022-12-27T17:54:50.517Z,4.1
2022-12-27T17:56:50.314Z,3.7
2022-12-27T17:58:59.684Z,3.9
2022-12-27T18:00:50.524Z,3.6
2022-12-27T18:02:50.426Z,3.8
2022-12-27T18:04:50.623Z,3.8
2022-12-27T18:06:50.584Z,4.1
2022-12-27T18:08:50.215Z,4.1
2022-12-27T18:10:49.841Z,4.3
2022-12-27T18:12:50.625Z,4.4
2022-12-27T18:14:50.299Z,4.4
2022-12-27T18:16:50.352Z,4.2
2022-12-27T18:18:50.289Z,4.2
2022-12-27T18:20:49.911Z,4.2
2022-12-27T18:22:50.510Z,4.5
2022-12-27T18:24:49.935Z,4.5
2022-12-27T18:26:49.950Z,4.5
2022-12-27T18:28:50.566Z,4.7
2022-12-27T18:30:50.151Z,4.8
2022-12-27T18:32:49.846Z,5.4
2022-12-27T18:34:49.831Z,5.0
2022-12-27T18:36:49.796Z,5.0
2022-12-27T18:38:50.401Z,5.4
2022-12-27T18:40:53.349Z,5.1
2022-12-27T18:42:49.848Z,5.5
2022-12-27T18:44:50.289Z,5.4
2022-12-27T18:46:50.323Z,5.4
2022-12-27T18:48:49.907Z,5.8
2022-12-27T18:50:50.550Z,5.8
2022-12-27T18:52:55.253Z,6.0
2022-12-27T18:54:49.769Z,6.0
2022-12-27T18:56:49.758Z,6.0
2022-12-27T18:58:50.370Z,5.8
2022-12-27T19:00:50.158Z,6.3
2022-12-27T19:02:50.739Z,6.1
2022-12-27T19:04:50.222Z,6.1
2022-12-27T19:06:50.247Z,6.1
2022-12-27T19:10:50.670Z,6.6
2022-12-27T19:12:50.256Z,6.6
2022-12-27T19:14:50.116Z,6.7
2022-12-27T19:16:49.917Z,6.7
2022-12-27T19:18:50.531Z,6.4
2022-12-27T19:20:50.148Z,6.5
2022-12-27T19:22:49.809Z,7.2
2022-12-27T19:24:50.570Z,7.2
2022-12-27T19:26:50.588Z,7.2
2022-12-27T19:28:50.235Z,7.2
2022-12-27T19:30:49.814Z,7.5
2022-12-27T19:32:50.400Z,7.5
2022-12-27T19:34:50.478Z,8.3
2022-12-27T19:36:50.485Z,7.2
2022-12-27T19:38:50.294Z,7.3
2022-12-27T19:40:50.704Z,7.4
2022-12-27T19:42:50.485Z,7.4
2022-12-27T19:44:49.951Z,8.0
2022-12-27T19:46:49.724Z,8.3
2022-12-27T19:49:40.653Z,8.7
2022-12-27T19:50:50.328Z,8.9
2022-12-27T19:52:49.965Z,8.9
2022-12-27T19:54:50.651Z,8.3
2022-12-27T19:56:50.615Z,9.4
2022-12-27T19:58:50.247Z,7.9
2022-12-27T20:00:49.925Z,8.2
2022-12-27T20:02:50.071Z,8.2
2022-12-27T20:04:50.690Z,8.0
2022-12-27T20:06:49.951Z,9.1
2022-12-27T20:08:50.532Z,10.6
2022-12-27T20:10:50.289Z,9.6
2022-12-27T20:12:49.921Z,9.6
2022-12-27T20:14:50.555Z,10.6
2022-12-27T20:16:50.706Z,9.6
2022-12-27T20:18:49.727Z,8.9
2022-12-27T20:20:50.376Z,8.6
2022-12-27T20:22:49.972Z,8.6
2022-12-27T20:24:49.817Z,9.3
2022-12-27T20:26:49.821Z,8.9
2022-12-27T20:28:50.407Z,8.6
2022-12-27T20:30:50.068Z,8.6
2022-12-27T20:32:50.665Z,8.3
2022-12-27T20:34:49.892Z,8.3
2022-12-27T20:36:49.886Z,9.6
2022-12-27T20:38:50.528Z,9.5
2022-12-27T20:40:50.144Z,9.5
2022-12-27T20:42:49.733Z,9.8
2022-12-27T20:44:50.331Z,10.2
2022-12-27T20:46:50.345Z,10.2
2022-12-27T20:48:49.976Z,9.4
2022-12-27T20:50:50.599Z,9.4
2022-12-27T20:52:50.191Z,9.4
2022-12-27T20:54:49.823Z,8.1
2022-12-27T20:56:49.840Z,8.1
2022-12-27T20:58:50.465Z,7.8
2022-12-27T21:00:50.296Z,7.8
2022-12-27T21:02:50.347Z,8.2
2022-12-27T21:04:50.058Z,7.0
2022-12-27T21:06:49.918Z,6.8
2022-12-27T21:08:58.097Z,7.3
2022-12-27T21:10:50.128Z,7.3
2022-12-27T21:12:49.743Z,6.6
2022-12-27T21:14:50.368Z,6.3
2022-12-27T21:16:50.434Z,7.3
2022-12-27T21:18:50.374Z,7.6
2022-12-27T21:20:50.039Z,7.6
2022-12-27T21:22:50.648Z,7.7
2022-12-27T21:24:50.252Z,8.8
2022-12-27T21:26:56.769Z,10.2
2022-12-27T21:28:50.472Z,10.2
2022-12-27T21:30:50.177Z,9.5
2022-12-27T21:32:50.089Z,9.4
2022-12-27T21:34:50.118Z,8.6
2022-12-27T21:36:50.141Z,8.6
2022-12-27T21:38:49.786Z,8.3
2022-12-27T21:40:49.770Z,8.8
2022-12-27T21:42:49.787Z,8.1
2022-12-27T21:44:50.366Z,8.2
2022-12-27T21:46:50.420Z,7.9
2022-12-27T21:48:50.025Z,7.9
2022-12-27T21:50:50.062Z,8.1
2022-12-27T21:52:50.042Z,7.7
2022-12-27T21:54:50.620Z,9.7
2022-12-27T21:56:50.687Z,9.7
2022-12-27T21:58:50.340Z,11.2
2022-12-27T22:00:58.008Z,11.6
2022-12-27T22:02:50.661Z,10.3
2022-12-27T22:04:50.341Z,9.3
2022-12-27T22:06:50.405Z,9.1
2022-12-27T22:08:49.975Z,9.1
2022-12-27T22:10:50.561Z,9.5
2022-12-27T22:12:50.164Z,9.6
2022-12-27T22:14:49.801Z,9.6
2022-12-27T22:16:49.832Z,9.6
2022-12-27T22:18:50.451Z,8.7
2022-12-27T22:20:50.251Z,8.8
2022-12-27T22:22:49.852Z,8.8
2022-12-27T22:24:50.480Z,8.5
2022-12-27T22:26:50.774Z,8.9
2022-12-27T22:28:50.264Z,8.9
2022-12-27T22:30:50.181Z,8.7
2022-12-27T22:32:49.955Z,8.7
2022-12-27T22:34:49.945Z,7.8
2022-12-27T22:36:49.979Z,7.8
2022-12-27T22:38:50.592Z,8.4
2022-12-27T22:40:50.656Z,8.1
2022-12-27T22:42:50.024Z,8.1
2022-12-27T22:44:49.840Z,7.9
2022-12-27T22:47:25.495Z,7.9
2022-12-27T22:48:50.375Z,7.9
2022-12-27T22:50:50.140Z,7.4
2022-12-27T22:52:52.689Z,7.4
2022-12-27T22:55:03.602Z,7.6
2022-12-27T22:56:50.490Z,7.6
2022-12-27T22:58:50.323Z,8.5
2022-12-27T23:00:49.964Z,8.0
2022-12-27T23:02:50.670Z,8.0
2022-12-27T23:04:50.090Z,8.1
2022-12-27T23:06:50.183Z,8.2
2022-12-27T23:08:49.818Z,8.2
2022-12-27T23:10:50.390Z,7.5
2022-12-27T23:12:50.018Z,7.5
2022-12-27T23:14:50.668Z,7.5
2022-12-27T23:16:50.627Z,7.2
2022-12-27T23:18:50.242Z,6.9
2022-12-27T23:21:19.583Z,6.9
2022-12-27T23:22:49.701Z,7.0
2022-12-27T23:24:50.296Z,7.0
2022-12-27T23:26:50.328Z,7.7
2022-12-27T23:28:49.955Z,7.0
2022-12-27T23:30:50.587Z,7.5
2022-12-27T23:32:50.553Z,6.2
2022-12-27T23:34:49.813Z,6.2
2022-12-27T23:36:49.826Z,6.5
2022-12-27T23:38:50.642Z,7.0
2022-12-27T23:40:50.211Z,6.6
2022-12-27T23:42:49.849Z,6.6
2022-12-27T23:44:50.235Z,7.1
2022-12-27T23:46:50.216Z,8.5
2022-12-27T23:48:50.268Z,8.7
2022-12-27T23:50:49.891Z,9.4
2022-12-27T23:52:50.496Z,9.4
2022-12-27T23:54:50.337Z,8.8
2022-12-27T23:56:50.176Z,8.9
2022-12-27T23:58:49.754Z,8.3
